Time;durP1;ratioP1;P1;durP2;ratioP2;P2;SDS_P1;SDS_P2;PMS_P1;PMS_P2;Temp;Humidity;BMP_temperature;BMP_pressure;BME280_temperature;BME280_humidity;BME280_pressure;Samples;Min_cycle;Max_cycle;Signal;HPM_P1;HPM_P2
2021/07/06 00:00:26;;;;;;;3.47;0.38;;;20.00;99.90;;;19.43;84.07;100365.38;5028022;28;20476;-56
2021/07/06 00:02:52;;;;;;;1.05;0.40;;;20.00;99.90;;;19.38;83.82;100370.44;5027911;28;20102;-53
2021/07/06 00:05:19;;;;;;;3.22;0.50;;;19.90;99.90;;;19.40;83.66;100363.13;5028001;28;20033;-58
2021/07/06 00:07:47;;;;;;;4.10;0.60;;;19.90;99.90;;;19.42;82.90;100369.03;5027888;28;20431;-58
2021/07/06 00:10:16;;;;;;;2.38;0.40;;;19.90;99.90;;;19.49;82.62;100366.38;5009651;28;20462;-56
2021/07/06 00:12:43;;;;;;;1.40;0.60;;;20.00;99.90;;;19.48;82.28;100360.28;5027516;28;20199;-53
2021/07/06 00:15:12;;;;;;;0.73;0.50;;;20.00;99.90;;;19.49;82.10;100358.47;5027681;28;20051;-53
2021/07/06 00:17:40;;;;;;;1.65;0.60;;;19.90;99.90;;;19.42;82.82;100368.22;5027483;28;20029;-56
2021/07/06 00:20:10;;;;;;;0.80;0.50;;;20.00;99.90;;;19.28;83.77;100366.63;5027585;28;20449;-54
2021/07/06 00:22:37;;;;;;;6.85;0.63;;;19.90;99.90;;;19.20;84.54;100371.09;5027375;28;20036;-58
2021/07/06 00:25:05;;;;;;;4.00;0.65;;;19.80;99.90;;;19.24;84.16;100363.56;5027500;28;20287;-55
2021/07/06 00:27:31;;;;;;;2.58;0.80;;;19.70;99.90;;;19.26;83.80;100364.19;5027209;28;20431;-57
2021/07/06 00:29:57;;;;;;;2.60;0.50;;;19.80;99.90;;;19.31;83.47;100360.94;5027412;28;20493;-56
2021/07/06 00:32:23;;;;;;;4.60;0.50;;;19.80;99.90;;;19.29;83.78;100371.69;5027252;28;20126;-58
2021/07/06 00:34:49;;;;;;;3.55;1.30;;;19.80;99.90;;;19.27;83.98;100373.72;5009531;28;20033;-55
2021/07/06 00:37:15;;;;;;;2.45;0.70;;;19.80;99.90;;;19.24;84.00;100374.13;5027525;28;20656;-56
2021/07/06 00:39:42;;;;;;;6.32;0.82;;;19.80;99.90;;;19.21;84.52;100369.25;5027619;28;20040;-53
2021/07/06 00:42:10;;;;;;;5.75;0.98;;;19.70;99.90;;;19.23;84.51;100375.16;5026928;28;20081;-54
2021/07/06 00:44:36;;;;;;;5.03;0.88;;;19.70;99.90;;;19.23;84.09;100377.78;5027306;28;20045;-56
2021/07/06 00:47:06;;;;;;;3.50;0.60;;;19.70;99.90;;;19.20;84.46;100373.72;5027106;28;20487;-53
2021/07/06 00:49:33;;;;;;;2.35;0.50;;;19.70;99.90;;;19.21;84.22;100371.91;5027153;28;20036;-58
2021/07/06 00:51:59;;;;;;;1.67;0.55;;;19.70;99.90;;;19.24;83.47;100379.41;5027317;28;20497;-58
2021/07/06 00:54:25;;;;;;;2.92;0.45;;;19.70;99.90;;;19.38;82.41;100373.09;5027232;28;20040;-56
2021/07/06 00:56:53;;;;;;;1.08;0.50;;;19.80;99.90;;;19.42;82.05;100373.50;5026956;28;20041;-57
2021/07/06 00:59:21;;;;;;;2.20;0.40;;;19.80;99.90;;;19.59;80.99;100377.38;5009581;28;20543;-57
2021/07/06 01:01:49;;;;;;;1.52;0.50;;;20.00;99.90;;;19.67;80.48;100373.72;5025713;28;20456;-56
2021/07/06 01:04:15;;;;;;;2.63;0.45;;;20.10;99.90;;;19.68;80.26;100386.72;5025546;28;20121;-58
2021/07/06 01:06:41;;;;;;;1.17;0.35;;;20.10;99.90;;;19.68;80.54;100385.91;5026961;28;20060;-53
2021/07/06 01:09:07;;;;;;;1.00;0.30;;;20.20;99.90;;;19.73;79.89;100379.00;5029996;28;20037;-57
2021/07/06 01:11:35;;;;;;;1.67;0.50;;;20.20;99.90;;;19.71;79.67;100390.78;5030964;28;20083;-56
2021/07/06 01:14:02;;;;;;;1.80;0.30;;;20.20;99.90;;;19.65;79.87;100383.69;5030984;28;20021;-57
2021/07/06 01:16:28;;;;;;;2.60;0.50;;;20.20;99.90;;;19.58;80.29;100382.88;5030961;28;20435;-60
2021/07/06 01:18:54;;;;;;;1.85;0.47;;;20.10;99.90;;;19.59;80.88;100392.44;5030932;28;20061;-59
2021/07/06 01:21:20;;;;;;;1.10;0.50;;;20.10;99.90;;;19.50;81.15;100391.78;5029288;28;20117;-58
2021/07/06 01:23:46;;;;;;;1.02;0.40;;;20.00;99.90;;;19.50;80.72;100389.16;5031068;28;20158;-55
2021/07/06 01:26:12;;;;;;;1.63;0.60;;;20.00;99.90;;;19.47;80.76;100374.53;5031047;28;20033;-59
2021/07/06 01:28:40;;;;;;;1.55;0.40;;;20.00;99.90;;;19.42;81.17;100378.78;5030785;28;20161;-56
2021/07/06 01:31:06;;;;;;;3.92;0.52;;;19.90;99.90;;;19.43;81.51;100380.41;5029203;28;20429;-55
2021/07/06 01:33:34;;;;;;;4.05;0.60;;;19.90;99.90;;;19.34;81.97;100379.84;5029376;28;20087;-52
2021/07/06 01:36:05;;;;;;;1.48;0.70;;;19.90;99.90;;;19.26;82.37;100382.69;5030513;28;20032;-52
2021/07/06 01:38:32;;;;;;;1.17;0.52;;;19.80;99.90;;;19.28;82.25;100393.84;5030493;28;20041;-53
2021/07/06 01:40:59;;;;;;;1.27;0.40;;;19.80;99.90;;;19.33;81.53;100383.50;5030699;28;20041;-58
2021/07/06 01:43:25;;;;;;;3.85;0.30;;;19.80;99.90;;;19.38;80.88;100374.94;5030232;28;20063;-53
2021/07/06 01:45:51;;;;;;;2.20;0.80;;;19.80;99.90;;;19.32;81.28;100379.22;5030424;28;20056;-52
2021/07/06 01:48:17;;;;;;;1.25;0.50;;;19.90;99.90;;;19.24;81.95;100379.41;5030490;28;20032;-58
2021/07/06 01:50:44;;;;;;;3.25;0.65;;;19.80;99.90;;;19.18;82.58;100380.22;5030549;28;20037;-58
2021/07/06 01:53:15;;;;;;;2.05;0.68;;;19.70;99.90;;;19.10;83.04;100373.31;5028606;28;20026;-54
2021/07/06 01:55:45;;;;;;;0.70;0.40;;;19.60;99.90;;;19.05;82.88;100370.47;5012661;28;20033;-53
2021/07/06 01:58:15;;;;;;;2.78;0.55;;;19.50;99.90;;;19.03;83.59;100369.03;5029057;28;20036;-54
2021/07/06 02:00:49;;;;;;;2.78;0.50;;;19.50;99.90;;;19.04;83.13;100363.56;5030059;28;20030;-50
2021/07/06 02:03:16;;;;;;;0.75;0.30;;;19.60;99.90;;;19.03;83.22;100371.69;5030095;28;20034;-54
2021/07/06 02:05:48;;;;;;;3.60;0.60;;;19.50;99.90;;;18.91;84.49;100363.53;5029979;28;20029;-55
2021/07/06 02:08:18;;;;;;;2.03;0.50;;;19.50;99.90;;;18.85;84.47;100370.44;5028561;28;20067;-52
2021/07/06 02:10:48;;;;;;;1.02;0.47;;;19.40;99.90;;;18.84;84.05;100355.63;5030410;28;20045;-56
2021/07/06 02:13:19;;;;;;;3.90;0.43;;;19.40;99.90;;;18.87;84.23;100363.16;5029921;28;20048;-55
2021/07/06 02:15:47;;;;;;;4.68;0.70;;;19.30;99.90;;;18.86;83.91;100361.53;5030193;28;20041;-56
2021/07/06 02:18:17;;;;;;;2.83;0.68;;;19.40;99.90;;;18.82;84.68;100360.28;5029674;28;20489;-56
2021/07/06 02:20:44;;;;;;;2.53;0.70;;;19.30;99.90;;;18.78;84.99;100369.63;5028211;28;20047;-54
2021/07/06 02:23:10;;;;;;;4.85;0.65;;;19.30;99.90;;;18.72;85.24;100362.50;5030091;28;20056;-58
2021/07/06 02:25:37;;;;;;;2.75;0.65;;;19.30;99.90;;;18.70;85.32;100363.72;5029767;28;20022;-55
2021/07/06 02:28:03;;;;;;;3.95;0.80;;;19.20;99.90;;;18.68;85.34;100366.56;5029863;28;20033;-57
2021/07/06 02:30:29;;;;;;;1.90;0.63;;;19.20;99.90;;;18.73;85.22;100373.88;5029609;28;20064;-57
2021/07/06 02:32:55;;;;;;;2.83;0.80;;;19.20;99.90;;;18.70;85.47;100372.44;5029261;28;20034;-53
2021/07/06 02:35:23;;;;;;;1.58;0.80;;;19.20;99.90;;;18.69;85.74;100386.66;5029730;28;20500;-58
2021/07/06 02:37:49;;;;;;;2.75;0.63;;;19.20;99.90;;;18.61;86.04;100384.19;5029550;28;20464;-57
2021/07/06 02:42:51;;;;;;;4.25;1.02;;;19.10;99.90;;;18.62;86.18;100377.09;4989652;22;20068;-55
2021/07/06 02:45:18;;;;;;;1.30;0.80;;;19.10;99.90;;;18.64;85.66;100382.97;5049532;28;20028;-56
2021/07/06 02:47:46;;;;;;;2.17;0.80;;;19.10;99.90;;;18.63;85.53;100376.88;5049048;28;20495;-54
2021/07/06 02:50:14;;;;;;;4.57;0.47;;;19.10;99.90;;;18.65;85.55;100384.59;5048949;28;20138;-55
2021/07/06 02:52:40;;;;;;;1.98;0.68;;;19.10;99.90;;;18.70;85.13;100375.09;5049020;28;20044;-59
2021/07/06 02:55:07;;;;;;;1.33;0.57;;;19.20;99.90;;;18.65;85.56;100380.16;5049401;28;20037;-58
2021/07/06 02:57:39;;;;;;;2.53;0.50;;;19.20;99.90;;;18.68;84.86;100377.09;5047408;28;20045;-53
2021/07/06 03:00:26;;;;;;;3.10;0.52;;;19.20;99.90;;;18.73;84.49;100374.69;5047524;28;20037;-57
2021/07/06 03:03:05;;;;;;;1.25;0.60;;;19.20;99.90;;;18.75;84.07;100377.94;5047606;28;20398;-54
2021/07/06 03:05:33;;;;;;;2.67;0.50;;;19.20;99.90;;;18.75;84.01;100371.84;5049196;28;20106;-51
2021/07/06 03:08:01;;;;;;;1.60;0.50;;;19.20;99.90;;;18.71;84.11;100379.34;5048631;28;20136;-52
2021/07/06 03:10:37;;;;;;;1.85;0.55;;;19.20;99.90;;;18.68;84.38;100374.47;5048596;28;20045;-57
2021/07/06 03:13:03;;;;;;;;;;;19.20;99.90;;;18.63;85.01;100376.88;5047485;28;20041;-52
2021/07/06 03:15:31;;;;;;;2.25;0.80;;;19.10;99.90;;;18.60;84.56;100372.00;5048977;28;19923;-51
2021/07/06 03:17:58;;;;;;;2.33;0.50;;;19.10;99.90;;;18.62;84.75;100374.44;5046999;28;20039;-57
2021/07/06 03:20:27;;;;;;;1.30;0.60;;;19.10;99.90;;;18.60;85.16;100394.91;5048749;28;20036;-55
2021/07/06 03:22:54;;;;;;;1.92;0.68;;;19.10;99.90;;;18.59;84.75;100383.53;5047021;28;20065;-53
2021/07/06 03:25:25;;;;;;;2.08;0.82;;;19.10;99.90;;;18.53;85.69;100381.69;5046996;28;20047;-56
2021/07/06 03:27:51;;;;;;;0.93;0.57;;;19.10;99.90;;;18.49;85.86;100372.53;5047348;28;20344;-54
2021/07/06 03:30:23;;;;;;;2.17;0.70;;;19.00;99.90;;;18.48;85.94;100378.84;5047954;28;20044;-55
2021/07/06 03:32:52;;;;;;;4.45;0.80;;;19.00;99.90;;;18.45;86.80;100387.13;5046750;28;20484;-53
2021/07/06 03:35:19;;;;;;;3.95;0.73;;;19.00;99.90;;;18.43;86.19;100370.72;5048284;28;20043;-53
2021/07/06 03:37:46;;;;;;;2.90;0.93;;;18.90;99.90;;;18.44;86.18;100369.69;5048088;28;20844;-50
2021/07/06 03:40:13;;;;;;;1.38;0.70;;;18.90;99.90;;;18.44;86.10;100373.13;5046537;28;20044;-53
2021/07/06 03:42:39;;;;;;;2.05;0.82;;;18.90;99.90;;;18.42;86.71;100361.19;5047956;28;20080;-55
2021/07/06 03:45:09;;;;;;;1.42;0.57;;;18.90;99.90;;;18.43;86.30;100362.81;5046521;28;20516;-54
2021/07/06 03:47:35;;;;;;;2.25;0.60;;;19.00;99.90;;;18.65;84.99;100363.50;5048312;28;20064;-54
2021/07/06 03:50:02;;;;;;;2.80;0.60;;;19.10;99.90;;;18.81;83.70;100363.13;5048015;28;20499;-55
2021/07/06 03:52:28;;;;;;;2.08;0.70;;;19.20;99.90;;;18.90;82.57;100361.94;5047502;28;20033;-56
2021/07/06 03:54:54;;;;;;;3.72;0.50;;;19.30;99.90;;;18.99;82.06;100359.88;5048359;28;20104;-55
2021/07/06 03:57:29;;;;;;;1.77;0.50;;;19.40;99.90;;;19.03;81.77;100355.84;5046336;28;20044;-53
2021/07/06 03:59:58;;;;;;;4.43;0.63;;;19.50;99.90;;;18.92;82.64;100369.63;5046708;28;20312;-52
2021/07/06 04:02:24;;;;;;;1.48;0.52;;;19.40;99.90;;;18.81;83.42;100371.06;5047832;28;20445;-58
2021/07/06 04:04:50;;;;;;;3.00;0.75;;;19.40;99.90;;;18.73;84.04;100372.06;5048268;28;20079;-56
2021/07/06 04:07:16;;;;;;;1.20;0.60;;;19.30;99.90;;;18.59;85.02;100370.34;5047310;28;20369;-55
2021/07/06 04:09:41;;;;;;;1.73;0.80;;;19.20;99.90;;;18.67;85.00;100375.47;5048001;28;20058;-55
2021/07/06 04:12:08;;;;;;;3.22;0.65;;;19.20;99.90;;;19.58;81.87;100370.47;5047371;28;20037;-55
2021/07/06 04:14:34;;;;;;;1.67;0.45;;;19.90;99.90;;;20.75;77.23;100366.81;5047797;28;20487;-56
2021/07/06 04:17:00;;;;;;;3.63;0.50;;;21.30;99.90;;;21.69;73.71;100371.19;5047419;28;20120;-55
2021/07/06 04:19:26;;;;;;;1.35;0.50;;;22.70;99.90;;;22.38;71.20;100372.63;5047268;28;20045;-57
2021/07/06 04:21:52;;;;;;;2.63;0.60;;;23.70;99.90;;;23.53;67.62;100372.34;5047206;28;20045;-53
2021/07/06 04:24:18;;;;;;;4.32;0.52;;;25.10;99.90;;;24.14;64.29;100367.28;5047420;28;20090;-53
2021/07/06 04:26:45;;;;;;;1.02;0.50;;;25.90;98.20;;;24.01;63.21;100366.78;5047414;28;20556;-54
2021/07/06 04:29:12;;;;;;;2.88;0.50;;;25.80;96.20;;;24.30;62.47;100368.44;5047294;28;20392;-56
2021/07/06 04:31:38;;;;;;;1.67;0.40;;;26.00;95.10;;;24.58;60.65;100350.81;5047171;28;20103;-56
2021/07/06 04:34:04;;;;;;;1.35;0.38;;;26.50;93.50;;;24.27;59.67;100349.47;5047292;28;20033;-54
2021/07/06 04:36:31;;;;;;;1.55;0.40;;;26.30;93.00;;;24.39;59.49;100351.03;5047107;28;20075;-56
2021/07/06 04:38:58;;;;;;;3.78;0.40;;;26.30;92.30;;;24.26;60.18;100358.50;5047485;28;20033;-53
2021/07/06 04:41:24;;;;;;;1.48;0.43;;;26.10;91.80;;;24.87;58.73;100349.75;5045524;28;20420;-57
2021/07/06 04:43:50;;;;;;;2.80;0.30;;;26.40;92.20;;;24.76;58.58;100345.28;5046969;28;20048;-54
2021/07/06 04:46:16;;;;;;;1.35;0.50;;;26.50;90.90;;;24.84;58.07;100355.56;5047378;28;20056;-55
2021/07/06 04:48:42;;;;;;;0.60;0.30;;;26.70;90.40;;;25.46;56.41;100361.66;5047264;28;20119;-55
2021/07/06 04:51:09;;;;;;;4.47;0.50;;;27.00;88.70;;;25.88;55.46;100353.16;5047188;28;20183;-55
2021/07/06 04:53:38;;;;;;;1.42;0.30;;;27.60;86.30;;;25.85;54.93;100356.31;5045778;28;20103;-54
2021/07/06 04:56:04;;;;;;;4.07;0.40;;;27.90;83.40;;;27.05;52.90;100357.88;5045675;28;20073;-54
2021/07/06 04:58:30;;;;;;;2.75;0.57;;;29.10;81.00;;;27.72;51.28;100364.50;5045751;28;20037;-55
2021/07/06 05:00:57;;;;;;;3.10;0.47;;;30.40;75.90;;;27.79;51.24;100370.41;5047066;28;20148;-57
2021/07/06 05:03:23;;;;;;;1.50;0.40;;;30.70;73.20;;;28.01;51.46;100362.19;5045546;28;20029;-57
2021/07/06 05:05:50;;;;;;;3.17;0.88;;;30.80;73.00;;;27.88;51.71;100358.16;5045885;28;20086;-56
2021/07/06 05:08:16;;;;;;;1.88;0.65;;;31.00;70.40;;;28.13;50.38;100367.31;5047254;28;20065;-57
2021/07/06 05:10:42;;;;;;;1.00;0.30;;;31.40;68.60;;;29.16;47.86;100367.25;5047043;28;20392;-57
2021/07/06 05:13:07;;;;;;;2.10;0.60;;;32.00;67.00;;;30.03;46.06;100376.75;5046955;28;20119;-55
2021/07/06 05:15:33;;;;;;;1.83;0.50;;;33.00;64.10;;;31.23;43.41;100373.53;5047013;28;20037;-57
2021/07/06 05:17:59;;;;;;;1.92;0.68;;;34.40;60.20;;;29.94;45.63;100379.16;5046770;28;20559;-55
2021/07/06 05:20:25;;;;;;;2.28;0.50;;;33.90;58.80;;;30.38;44.94;100381.94;5046982;28;20124;-55
2021/07/06 05:22:51;;;;;;;3.92;0.40;;;33.90;59.20;;;29.64;45.96;100384.66;5045492;28;20404;-55
2021/07/06 05:25:17;;;;;;;2.00;0.32;;;33.40;59.20;;;28.90;47.74;100380.66;5046936;28;20079;-57
2021/07/06 05:27:43;;;;;;;8.18;0.60;;;32.70;59.80;;;28.40;48.89;100389.41;5046958;28;20147;-55
2021/07/06 05:30:11;;;;;;;2.38;0.30;;;32.30;60.00;;;28.74;47.95;100381.72;5046790;28;20041;-54
2021/07/06 05:32:39;;;;;;;4.68;0.73;;;32.00;60.80;;;27.45;50.51;100391.31;5046792;28;20041;-54
2021/07/06 05:35:08;;;;;;;5.53;0.77;;;31.20;61.50;;;27.89;50.23;100386.50;5046487;28;20495;-55
2021/07/06 05:37:36;;;;;;;2.55;0.82;;;31.30;62.20;;;29.03;47.00;100380.13;5045073;28;20033;-53
2021/07/06 05:40:05;;;;;;;4.03;0.80;;;32.30;60.00;;;30.27;44.61;100382.25;5046671;28;20492;-57
2021/07/06 05:42:35;;;;;;;1.60;0.50;;;33.20;58.90;;;30.28;44.40;100379.28;5044892;28;20052;-57
2021/07/06 05:45:02;;;;;;;1.75;0.32;;;33.80;57.00;;;30.59;43.73;100376.47;5046359;28;20441;-55
2021/07/06 05:47:28;;;;;;;3.65;0.60;;;34.30;55.90;;;30.04;44.24;100373.78;5044911;28;20041;-56
2021/07/06 05:49:54;;;;;;;1.67;0.40;;;33.90;56.00;;;29.49;45.60;100380.09;5046959;28;20086;-55
2021/07/06 05:52:20;;;;;;;6.78;0.82;;;33.30;56.90;;;29.83;45.31;100380.28;5046612;28;20083;-56
2021/07/06 05:54:46;;;;;;;4.18;0.70;;;33.60;56.20;;;29.44;45.62;100385.47;5048896;28;20075;-57
2021/07/06 05:57:11;;;;;;;3.95;0.70;;;33.50;55.80;;;28.55;48.10;100383.28;5050278;28;20051;-57
2021/07/06 05:59:37;;;;;;;6.68;2.60;;;32.70;57.50;;;28.86;47.78;100378.78;5050477;28;20334;-54
2021/07/06 06:02:04;;;;;;;6.50;2.60;;;32.70;57.50;;;28.89;47.31;100376.38;5050157;28;20049;-56
2021/07/06 06:04:29;;;;;;;3.17;0.82;;;32.90;57.40;;;29.57;46.11;100378.75;5048697;28;20171;-54
2021/07/06 06:06:55;;;;;;;4.97;0.40;;;33.50;56.50;;;29.44;46.17;100376.63;5049734;28;20072;-56
2021/07/06 06:09:21;;;;;;;2.40;0.60;;;33.70;55.70;;;29.63;45.72;100380.34;5049688;28;20483;-56
2021/07/06 06:11:47;;;;;;;4.40;0.50;;;33.50;56.30;;;28.79;47.44;100387.09;5049831;28;20104;-56
2021/07/06 06:14:13;;;;;;;2.45;0.63;;;33.00;56.70;;;29.54;45.68;100387.34;5049663;28;20116;-53
2021/07/06 06:16:39;;;;;;;6.68;0.43;;;33.20;55.80;;;29.64;44.34;100387.34;5049842;28;20033;-55
2021/07/06 06:19:05;;;;;;;0.90;0.30;;;33.10;56.00;;;29.90;44.51;100390.72;5049875;28;20037;-53
2021/07/06 06:21:32;;;;;;;2.08;0.40;;;33.40;56.00;;;29.62;45.56;100397.53;5049681;28;20527;-53
2021/07/06 06:23:59;;;;;;;2.35;0.50;;;33.40;55.50;;;30.75;43.29;100388.69;5048042;28;20076;-53
2021/07/06 06:26:25;;;;;;;3.15;0.43;;;34.30;54.90;;;31.34;42.03;100396.56;5049529;28;20354;-50
2021/07/06 06:28:51;;;;;;;1.20;0.50;;;35.60;52.60;;;31.69;41.43;100391.94;5049426;28;20044;-54
2021/07/06 06:31:17;;;;;;;3.00;0.88;;;35.90;52.10;;;32.47;40.41;100390.72;5049843;28;20064;-53
2021/07/06 06:33:44;;;;;;;5.75;0.50;;;36.60;51.50;;;33.15;38.73;100392.88;5049845;28;20045;-54
2021/07/06 06:36:11;;;;;;;4.15;0.40;;;37.30;49.90;;;33.56;37.90;100393.78;5049583;28;20081;-54
2021/07/06 06:38:37;;;;;;;1.25;0.35;;;38.30;48.80;;;33.95;36.92;100387.91;5049342;28;20380;-53
2021/07/06 06:41:03;;;;;;;5.05;0.50;;;38.90;46.80;;;33.86;36.39;100389.72;5049720;28;20108;-53
2021/07/06 06:43:28;;;;;;;4.78;0.40;;;38.40;47.70;;;33.22;37.79;100394.09;5049118;28;20045;-54
2021/07/06 06:45:54;;;;;;;2.53;0.30;;;37.80;48.20;;;33.03;37.94;100393.38;5049547;28;20526;-53
2021/07/06 06:48:20;;;;;;;2.25;0.35;;;37.70;48.20;;;32.89;38.16;100397.91;5049221;28;20112;-54
2021/07/06 06:50:46;;;;;;;2.00;0.30;;;37.60;47.60;;;33.18;37.44;100400.38;5049098;28;20055;-56
2021/07/06 06:53:12;;;;;;;0.88;0.40;;;37.50;48.00;;;33.88;36.02;100397.53;5049402;28;20025;-61
2021/07/06 06:55:38;;;;;;;3.47;0.70;;;38.10;46.90;;;33.70;36.69;100391.09;5049154;28;20388;-57
2021/07/06 06:58:04;;;;;;;1.70;0.40;;;38.60;46.10;;;34.06;35.51;100396.59;5048782;28;20504;-57
2021/07/06 07:00:32;;;;;;;3.03;0.50;;;38.80;46.00;;;33.94;35.60;100394.41;5049311;28;20120;-61
2021/07/06 07:02:58;;;;;;;3.47;0.40;;;39.10;45.10;;;33.57;35.82;100398.06;5047402;28;20134;-56
2021/07/06 07:05:24;;;;;;;3.58;0.60;;;38.70;44.90;;;33.10;36.23;100404.56;5048015;28;20048;-57
2021/07/06 07:07:52;;;;;;;3.40;0.50;;;38.30;45.00;;;32.69;36.83;100400.88;5049372;28;20033;-61
2021/07/06 07:10:19;;;;;;;1.88;0.70;;;37.80;45.50;;;32.48;37.76;100405.81;5048939;28;20138;-62
2021/07/06 07:12:45;;;;;;;2.38;0.47;;;37.20;46.60;;;32.59;36.95;100393.78;5049116;28;20039;-59
2021/07/06 07:15:12;;;;;;;2.10;0.38;;;37.20;46.30;;;31.80;37.92;100398.81;5047245;28;20037;-60
2021/07/06 07:17:38;;;;;;;3.40;0.40;;;35.80;48.30;;;30.61;39.77;100387.75;5048863;28;20041;-60
2021/07/06 07:20:06;;;;;;;4.00;0.60;;;33.20;52.30;;;29.44;43.23;100392.72;5048714;28;20040;-57
2021/07/06 07:22:33;;;;;;;1.77;0.50;;;31.00;57.10;;;29.11;44.37;100388.72;5047054;28;20550;-60
2021/07/06 07:25:00;;;;;;;5.28;0.47;;;30.00;59.80;;;28.76;44.83;100382.25;5048252;28;20032;-58
2021/07/06 07:27:25;;;;;;;2.45;0.30;;;29.60;60.40;;;28.13;46.00;100383.41;5048684;28;20609;-56
2021/07/06 07:29:51;;;;;;;2.97;0.55;;;29.00;61.50;;;28.28;45.68;100388.84;5048487;28;20029;-61
2021/07/06 07:32:17;;;;;;;1.23;0.50;;;28.80;61.80;;;28.56;45.65;100377.66;5048497;28;20029;-60
2021/07/06 07:34:43;;;;;;;0.82;0.30;;;28.90;62.70;;;28.51;45.24;100377.63;5048349;28;20116;-60
2021/07/06 07:37:10;;;;;;;0.60;0.30;;;28.90;62.60;;;28.67;44.06;100379.28;5037898;28;20132;-55
2021/07/06 07:39:37;;;;;;;3.72;0.73;;;29.00;62.00;;;28.36;45.04;100375.72;5016622;28;20038;-58
2021/07/06 07:42:05;;;;;;;5.18;0.40;;;28.90;62.20;;;28.03;45.63;100373.44;5015682;28;20518;-56
2021/07/06 07:44:31;;;;;;;4.13;0.40;;;28.60;62.60;;;28.06;46.13;100375.59;5027527;28;20453;-56
2021/07/06 07:46:58;;;;;;;0.63;0.30;;;28.50;63.10;;;28.26;44.93;100364.19;5025608;28;20037;-58
2021/07/06 07:49:24;;;;;;;1.27;0.32;;;28.70;62.70;;;28.51;44.59;100360.75;5026905;28;20085;-56
2021/07/06 07:51:50;;;;;;;0.80;0.32;;;29.00;62.40;;;28.44;43.96;100354.84;5027124;28;20434;-57
2021/07/06 07:54:16;;;;;;;1.52;0.40;;;29.00;60.90;;;28.29;44.14;100363.66;5025690;28;20051;-56
2021/07/06 07:56:42;;;;;;;3.63;0.30;;;28.70;61.30;;;28.35;43.72;100354.59;5017650;28;20116;-56
2021/07/06 07:59:09;;;;;;;2.03;0.30;;;28.70;61.40;;;28.60;43.62;100359.16;5021814;28;20032;-54
2021/07/06 08:01:35;;;;;;;2.92;0.50;;;28.90;62.10;;;28.79;42.72;100356.78;5025396;28;20431;-51
2021/07/06 08:04:01;;;;;;;4.78;0.40;;;29.10;61.10;;;28.95;42.75;100358.41;5028345;28;20037;-54
2021/07/06 08:06:28;;;;;;;2.78;0.30;;;29.20;60.90;;;28.93;42.31;100352.50;5023997;28;20037;-57
2021/07/06 08:08:54;;;;;;;0.98;0.30;;;29.40;60.50;;;29.22;41.85;100350.88;5026260;28;20455;-59
2021/07/06 08:11:21;;;;;;;2.70;0.35;;;29.50;60.30;;;29.58;41.22;100358.88;5028259;28;20120;-58
2021/07/06 08:13:47;;;;;;;3.47;0.40;;;29.70;60.40;;;29.98;40.73;100341.81;5028018;28;20041;-63
2021/07/06 08:16:14;;;;;;;0.77;0.35;;;30.00;60.20;;;30.45;40.05;100353.94;5027699;28;20033;-50
2021/07/06 08:18:40;;;;;;;1.95;0.20;;;30.40;59.90;;;30.80;39.22;100342.16;5027589;28;20037;-59
2021/07/06 08:21:06;;;;;;;0.45;0.22;;;30.80;59.10;;;30.26;39.45;100349.19;5028106;28;20037;-58
2021/07/06 08:23:33;;;;;;;2.50;0.22;;;30.60;57.50;;;30.01;39.32;100336.72;5027677;28;20038;-53
2021/07/06 08:25:59;;;;;;;0.70;0.20;;;30.40;57.30;;;30.04;38.80;100332.69;5027773;28;20121;-61
2021/07/06 08:28:27;;;;;;;2.05;0.20;;;30.40;56.70;;;30.43;38.51;100332.72;5027941;28;20029;-56
2021/07/06 08:30:53;;;;;;;0.47;0.20;;;30.50;57.20;;;30.75;38.59;100340.28;5026428;28;20037;-57
2021/07/06 08:33:19;;;;;;;0.40;0.20;;;30.80;57.60;;;30.80;38.35;100342.16;5027673;28;20029;-59
2021/07/06 08:35:46;;;;;;;1.85;0.20;;;31.00;57.10;;;30.81;37.86;100343.75;5027565;28;20087;-57
2021/07/06 08:38:16;;;;;;;2.30;0.20;;;31.00;56.70;;;30.85;37.07;100350.19;5027330;28;20037;-57
2021/07/06 08:40:43;;;;;;;1.75;0.30;;;31.00;56.10;;;31.28;37.07;100346.56;5028053;28;20155;-58
2021/07/06 08:43:10;;;;;;;4.65;0.20;;;31.30;56.50;;;31.58;37.34;100342.75;5027409;28;20053;-57
2021/07/06 08:45:37;;;;;;;2.65;0.25;;;31.70;56.80;;;31.50;37.67;100345.28;5025933;28;20108;-58
2021/07/06 08:48:03;;;;;;;0.63;0.20;;;31.70;56.40;;;31.38;37.93;100351.06;5027367;28;20052;-53
2021/07/06 08:50:29;;;;;;;0.50;0.28;;;31.60;56.90;;;31.28;37.66;100348.47;5027268;28;20116;-58
2021/07/06 08:52:55;;;;;;;0.93;0.20;;;31.60;56.20;;;31.51;37.42;100346.88;5027339;28;20072;-57
2021/07/06 08:55:22;;;;;;;0.40;0.20;;;31.70;56.30;;;31.29;36.27;100350.88;5025810;28;20036;-60
2021/07/06 08:57:53;;;;;;;0.57;0.20;;;31.70;54.90;;;31.11;36.37;100346.19;5027239;28;20037;-59
2021/07/06 09:00:21;;;;;;;4.15;0.20;;;31.40;55.10;;;31.29;36.52;100347.38;5025833;28;20194;-54
2021/07/06 09:03:14;;;;;;;0.50;0.30;;;31.50;55.20;;;31.75;36.08;100347.69;5027722;28;20083;-54
2021/07/06 09:05:40;;;;;;;0.30;0.20;;;31.70;55.40;;;31.87;35.77;100345.41;5027253;28;20026;-57
2021/07/06 09:08:09;;;;;;;0.40;0.40;;;32.00;55.30;;;32.19;35.89;100351.97;5027033;28;20678;-60
2021/07/06 09:10:41;;;;;;;1.65;0.20;;;32.20;55.10;;;32.21;35.07;100349.78;5025599;28;20119;-54
2021/07/06 09:13:28;;;;;;;0.73;0.20;;;32.40;54.50;;;32.03;33.57;100358.69;5027401;28;20091;-55
2021/07/06 09:15:57;;;;;;;2.25;0.20;;;32.30;52.70;;;31.72;34.96;100359.03;5027144;28;20030;-51
2021/07/06 09:18:31;;;;;;;0.68;0.20;;;32.10;53.00;;;31.81;34.24;100357.31;5026824;28;20088;-55
2021/07/06 09:21:09;;;;;;;1.08;0.20;;;32.10;53.50;;;31.82;34.68;100352.75;5025962;28;20045;-52
2021/07/06 09:23:40;;;;;;;0.80;0.28;;;32.00;53.80;;;32.10;35.22;100353.75;5027189;28;20516;-55
2021/07/06 09:26:22;;;;;;;0.73;0.20;;;32.20;53.90;;;32.40;34.15;100364.13;5026934;28;20036;-55
2021/07/06 09:29:00;;;;;;;3.55;0.20;;;32.50;53.60;;;32.58;33.71;100360.63;5026152;28;20037;-59
2021/07/06 09:31:33;;;;;;;0.30;0.20;;;32.70;53.30;;;32.42;33.82;100364.63;5031090;28;20029;-49
2021/07/06 09:34:09;;;;;;;1.17;0.20;;;32.60;52.90;;;32.64;33.66;100359.41;5030787;28;20037;-61
2021/07/06 09:36:50;;;;;;;0.60;0.20;;;32.70;52.60;;;32.13;32.74;100359.34;5030244;28;20026;-55
2021/07/06 09:39:17;;;;;;;0.60;0.10;;;32.50;52.00;;;31.98;33.80;100356.84;5030914;28;20030;-57
2021/07/06 09:42:03;;;;;;;1.85;0.20;;;32.40;51.50;;;31.31;33.17;100353.28;5030690;28;20079;-59
2021/07/06 09:44:33;;;;;;;0.22;0.10;;;31.90;51.60;;;31.50;34.17;100356.84;5030759;28;20440;-54
2021/07/06 09:47:04;;;;;;;0.32;0.10;;;31.70;52.30;;;32.21;33.42;100355.19;5029621;28;20484;-58
2021/07/06 09:49:34;;;;;;;0.75;0.20;;;32.10;52.70;;;32.15;33.32;100345.56;5030684;28;20063;-56
2021/07/06 09:52:15;;;;;;;1.33;0.20;;;32.30;51.70;;;32.11;33.61;100356.16;5029560;28;20163;-58
2021/07/06 09:54:45;;;;;;;1.75;0.10;;;32.30;51.90;;;31.88;33.76;100352.38;5027818;28;20025;-60
2021/07/06 10:00:12;;;;;;;0.30;0.10;;;32.10;52.00;;;31.41;33.71;100344.28;5030843;28;20132;-59
2021/07/06 10:02:41;;;;;;;2.00;0.10;;;31.70;52.10;;;31.70;33.82;100346.94;5010166;28;20064;-61
2021/07/06 10:05:16;;;;;;;0.40;0.20;;;31.90;52.30;;;32.04;32.86;100344.91;5029448;28;20040;-59
2021/07/06 10:07:42;;;;;;;1.02;0.10;;;32.10;52.10;;;31.84;33.56;100335.19;5028540;28;20570;-59
2021/07/06 10:10:15;;;;;;;0.38;0.10;;;32.10;51.70;;;31.58;33.74;100336.59;5029369;28;20029;-58
2021/07/06 10:12:48;;;;;;;1.77;0.20;;;31.90;51.60;;;31.87;33.04;100326.53;5029306;28;20124;-58
2021/07/06 10:15:16;;;;;;;0.30;0.20;;;32.00;51.40;;;32.49;32.94;100335.41;5028854;28;20543;-60
2021/07/06 10:17:43;;;;;;;1.45;0.20;;;32.40;51.60;;;32.21;32.62;100329.03;5029962;28;20038;-58
2021/07/06 10:20:14;;;;;;;1.58;0.20;;;32.50;50.90;;;31.95;33.27;100331.28;5029862;28;20022;-58